sensor_id;sensor_type;location;lat;lon;timestamp;P1;durP1;ratioP1;P2;durP2;ratioP2
11685;SDS011;5899;51.282;6.094;2023-01-19T00:02:11;11.07;;;10.05;;
11685;SDS011;5899;51.282;6.094;2023-01-19T00:04:51;12.10;;;10.82;;
11685;SDS011;5899;51.282;6.094;2023-01-19T00:07:43;11.57;;;10.57;;
11685;SDS011;5899;51.282;6.094;2023-01-19T00:10:22;11.68;;;10.50;;
11685;SDS011;5899;51.282;6.094;2023-01-19T00:13:12;11.10;;;10.07;;
11685;SDS011;5899;51.282;6.094;2023-01-19T00:15:46;11.67;;;10.47;;
11685;SDS011;5899;51.282;6.094;2023-01-19T00:18:24;12.27;;;11.00;;
11685;SDS011;5899;51.282;6.094;2023-01-19T00:20:52;12.02;;;10.93;;
11685;SDS011;5899;51.282;6.094;2023-01-19T00:23:22;12.52;;;10.82;;
11685;SDS011;5899;51.282;6.094;2023-01-19T00:26:07;11.50;;;10.38;;
11685;SDS011;5899;51.282;6.094;2023-01-19T00:28:41;12.27;;;10.98;;
11685;SDS011;5899;51.282;6.094;2023-01-19T00:31:14;11.85;;;10.50;;
11685;SDS011;5899;51.282;6.094;2023-01-19T00:33:46;12.25;;;10.98;;
11685;SDS011;5899;51.282;6.094;2023-01-19T00:36:23;12.02;;;10.63;;
11685;SDS011;5899;51.282;6.094;2023-01-19T00:41:53;13.00;;;11.70;;
11685;SDS011;5899;51.282;6.094;2023-01-19T00:44:43;13.23;;;11.33;;
11685;SDS011;5899;51.282;6.094;2023-01-19T00:47:11;12.52;;;11.32;;
11685;SDS011;5899;51.282;6.094;2023-01-19T00:50:11;13.73;;;12.33;;
11685;SDS011;5899;51.282;6.094;2023-01-19T00:53:00;12.20;;;11.00;;
11685;SDS011;5899;51.282;6.094;2023-01-19T00:55:37;12.50;;;11.20;;
11685;SDS011;5899;51.282;6.094;2023-01-19T00:58:25;13.02;;;11.55;;
11685;SDS011;5899;51.282;6.094;2023-01-19T01:00:59;12.77;;;11.13;;
11685;SDS011;5899;51.282;6.094;2023-01-19T01:03:32;16.40;;;11.18;;
11685;SDS011;5899;51.282;6.094;2023-01-19T01:06:06;12.65;;;11.35;;
11685;SDS011;5899;51.282;6.094;2023-01-19T01:08:36;12.38;;;10.93;;
11685;SDS011;5899;51.282;6.094;2023-01-19T01:11:17;13.10;;;11.43;;
11685;SDS011;5899;51.282;6.094;2023-01-19T01:13:46;12.88;;;11.48;;
11685;SDS011;5899;51.282;6.094;2023-01-19T01:16:23;12.45;;;11.25;;
11685;SDS011;5899;51.282;6.094;2023-01-19T01:18:53;12.80;;;11.50;;
11685;SDS011;5899;51.282;6.094;2023-01-19T01:21:29;12.40;;;11.18;;
11685;SDS011;5899;51.282;6.094;2023-01-19T01:23:59;13.30;;;11.20;;
11685;SDS011;5899;51.282;6.094;2023-01-19T01:26:41;14.20;;;11.60;;
11685;SDS011;5899;51.282;6.094;2023-01-19T01:29:28;12.90;;;11.50;;
11685;SDS011;5899;51.282;6.094;2023-01-19T01:32:19;13.23;;;11.07;;
11685;SDS011;5899;51.282;6.094;2023-01-19T01:35:22;12.15;;;10.95;;
11685;SDS011;5899;51.282;6.094;2023-01-19T01:37:54;12.70;;;11.40;;
11685;SDS011;5899;51.282;6.094;2023-01-19T01:43:16;14.45;;;11.70;;
11685;SDS011;5899;51.282;6.094;2023-01-19T01:48:47;12.43;;;10.70;;
11685;SDS011;5899;51.282;6.094;2023-01-19T01:51:27;13.10;;;11.70;;
11685;SDS011;5899;51.282;6.094;2023-01-19T01:54:05;12.98;;;11.00;;
11685;SDS011;5899;51.282;6.094;2023-01-19T01:56:51;12.57;;;11.00;;
11685;SDS011;5899;51.282;6.094;2023-01-19T01:59:19;12.70;;;10.65;;
11685;SDS011;5899;51.282;6.094;2023-01-19T02:01:51;27.25;;;11.20;;
11685;SDS011;5899;51.282;6.094;2023-01-19T02:04:55;66.72;;;14.75;;
11685;SDS011;5899;51.282;6.094;2023-01-19T02:07:26;11.85;;;10.13;;
11685;SDS011;5899;51.282;6.094;2023-01-19T02:10:12;13.23;;;10.60;;
11685;SDS011;5899;51.282;6.094;2023-01-19T02:12:56;12.30;;;11.00;;
11685;SDS011;5899;51.282;6.094;2023-01-19T02:15:41;12.15;;;10.57;;
11685;SDS011;5899;51.282;6.094;2023-01-19T02:18:08;12.23;;;10.93;;
11685;SDS011;5899;51.282;6.094;2023-01-19T02:20:37;13.05;;;11.23;;
11685;SDS011;5899;51.282;6.094;2023-01-19T02:23:06;12.60;;;11.30;;
11685;SDS011;5899;51.282;6.094;2023-01-19T02:25:41;11.65;;;10.43;;
11685;SDS011;5899;51.282;6.094;2023-01-19T02:28:08;11.90;;;10.52;;
11685;SDS011;5899;51.282;6.094;2023-01-19T02:30:34;11.63;;;10.45;;
11685;SDS011;5899;51.282;6.094;2023-01-19T02:33:05;12.88;;;11.27;;
11685;SDS011;5899;51.282;6.094;2023-01-19T02:35:34;13.05;;;10.80;;
11685;SDS011;5899;51.282;6.094;2023-01-19T02:38:02;13.02;;;11.40;;
11685;SDS011;5899;51.282;6.094;2023-01-19T02:40:29;13.57;;;11.32;;
11685;SDS011;5899;51.282;6.094;2023-01-19T02:42:57;11.80;;;10.60;;
11685;SDS011;5899;51.282;6.094;2023-01-19T02:45:25;13.88;;;11.02;;
11685;SDS011;5899;51.282;6.094;2023-01-19T02:47:55;12.02;;;10.82;;
11685;SDS011;5899;51.282;6.094;2023-01-19T02:50:32;12.43;;;11.13;;
11685;SDS011;5899;51.282;6.094;2023-01-19T02:53:03;12.90;;;11.35;;
11685;SDS011;5899;51.282;6.094;2023-01-19T02:55:35;11.85;;;10.63;;
11685;SDS011;5899;51.282;6.094;2023-01-19T02:58:06;12.97;;;11.53;;
11685;SDS011;5899;51.282;6.094;2023-01-19T03:00:39;12.20;;;10.90;;
11685;SDS011;5899;51.282;6.094;2023-01-19T03:03:15;11.93;;;10.73;;
11685;SDS011;5899;51.282;6.094;2023-01-19T03:05:50;12.88;;;11.50;;
11685;SDS011;5899;51.282;6.094;2023-01-19T03:08:35;14.18;;;10.88;;
11685;SDS011;5899;51.282;6.094;2023-01-19T03:11:08;12.68;;;11.07;;
11685;SDS011;5899;51.282;6.094;2023-01-19T03:13:39;14.57;;;11.55;;
11685;SDS011;5899;51.282;6.094;2023-01-19T03:16:10;13.02;;;11.43;;
11685;SDS011;5899;51.282;6.094;2023-01-19T03:18:38;14.35;;;11.35;;
11685;SDS011;5899;51.282;6.094;2023-01-19T03:21:07;13.30;;;11.90;;
11685;SDS011;5899;51.282;6.094;2023-01-19T03:23:36;13.57;;;11.35;;
11685;SDS011;5899;51.282;6.094;2023-01-19T03:26:04;12.97;;;11.57;;
11685;SDS011;5899;51.282;6.094;2023-01-19T03:28:35;13.25;;;11.80;;
11685;SDS011;5899;51.282;6.094;2023-01-19T03:31:13;12.70;;;11.35;;
11685;SDS011;5899;51.282;6.094;2023-01-19T03:33:42;14.03;;;11.77;;
11685;SDS011;5899;51.282;6.094;2023-01-19T03:36:13;13.63;;;11.57;;
11685;SDS011;5899;51.282;6.094;2023-01-19T03:38:47;13.10;;;11.25;;
11685;SDS011;5899;51.282;6.094;2023-01-19T03:41:21;17.75;;;12.18;;
11685;SDS011;5899;51.282;6.094;2023-01-19T03:43:52;15.77;;;11.23;;
11685;SDS011;5899;51.282;6.094;2023-01-19T03:46:20;14.15;;;11.77;;
11685;SDS011;5899;51.282;6.094;2023-01-19T03:48:47;22.05;;;11.85;;
11685;SDS011;5899;51.282;6.094;2023-01-19T03:51:16;19.25;;;12.00;;
11685;SDS011;5899;51.282;6.094;2023-01-19T03:53:46;18.33;;;11.55;;
11685;SDS011;5899;51.282;6.094;2023-01-19T03:56:21;13.55;;;11.10;;
11685;SDS011;5899;51.282;6.094;2023-01-19T03:58:48;16.60;;;12.52;;
11685;SDS011;5899;51.282;6.094;2023-01-19T04:01:16;14.25;;;11.80;;
11685;SDS011;5899;51.282;6.094;2023-01-19T04:03:46;15.05;;;12.68;;
11685;SDS011;5899;51.282;6.094;2023-01-19T04:06:18;13.82;;;12.20;;
11685;SDS011;5899;51.282;6.094;2023-01-19T04:08:49;15.82;;;12.57;;
11685;SDS011;5899;51.282;6.094;2023-01-19T04:11:19;14.47;;;11.80;;
11685;SDS011;5899;51.282;6.094;2023-01-19T04:13:48;15.45;;;12.40;;
11685;SDS011;5899;51.282;6.094;2023-01-19T04:16:22;15.65;;;12.70;;
11685;SDS011;5899;51.282;6.094;2023-01-19T04:18:50;16.13;;;12.23;;
11685;SDS011;5899;51.282;6.094;2023-01-19T04:21:31;15.85;;;12.60;;
11685;SDS011;5899;51.282;6.094;2023-01-19T04:23:58;15.27;;;12.70;;
11685;SDS011;5899;51.282;6.094;2023-01-19T04:26:25;18.57;;;13.80;;
11685;SDS011;5899;51.282;6.094;2023-01-19T04:28:53;19.02;;;13.20;;
11685;SDS011;5899;51.282;6.094;2023-01-19T04:31:24;17.88;;;13.40;;
11685;SDS011;5899;51.282;6.094;2023-01-19T04:36:43;16.83;;;13.70;;
11685;SDS011;5899;51.282;6.094;2023-01-19T04:39:19;17.48;;;13.80;;
11685;SDS011;5899;51.282;6.094;2023-01-19T04:41:48;15.85;;;13.55;;
11685;SDS011;5899;51.282;6.094;2023-01-19T04:44:18;17.17;;;14.25;;
11685;SDS011;5899;51.282;6.094;2023-01-19T04:46:50;18.42;;;14.43;;
11685;SDS011;5899;51.282;6.094;2023-01-19T04:49:22;16.95;;;14.40;;
11685;SDS011;5899;51.282;6.094;2023-01-19T04:52:12;16.40;;;13.48;;
11685;SDS011;5899;51.282;6.094;2023-01-19T04:54:56;16.42;;;14.43;;
11685;SDS011;5899;51.282;6.094;2023-01-19T04:57:45;15.52;;;13.93;;
11685;SDS011;5899;51.282;6.094;2023-01-19T05:00:19;19.75;;;14.80;;
11685;SDS011;5899;51.282;6.094;2023-01-19T05:02:52;15.60;;;13.57;;
11685;SDS011;5899;51.282;6.094;2023-01-19T05:05:59;14.85;;;13.30;;
11685;SDS011;5899;51.282;6.094;2023-01-19T05:08:38;14.63;;;13.10;;
11685;SDS011;5899;51.282;6.094;2023-01-19T05:11:22;14.10;;;12.10;;
11685;SDS011;5899;51.282;6.094;2023-01-19T05:13:52;13.38;;;11.98;;
11685;SDS011;5899;51.282;6.094;2023-01-19T05:16:41;13.88;;;11.90;;
11685;SDS011;5899;51.282;6.094;2023-01-19T05:19:57;14.55;;;12.57;;
11685;SDS011;5899;51.282;6.094;2023-01-19T05:22:25;13.23;;;11.85;;
11685;SDS011;5899;51.282;6.094;2023-01-19T05:25:27;11.85;;;10.48;;
11685;SDS011;5899;51.282;6.094;2023-01-19T05:28:10;11.27;;;10.18;;
11685;SDS011;5899;51.282;6.094;2023-01-19T05:30:41;10.98;;;9.88;;
11685;SDS011;5899;51.282;6.094;2023-01-19T05:33:21;10.68;;;9.68;;
11685;SDS011;5899;51.282;6.094;2023-01-19T05:36:12;11.30;;;10.10;;
11685;SDS011;5899;51.282;6.094;2023-01-19T05:45:09;11.57;;;10.37;;
11685;SDS011;5899;51.282;6.094;2023-01-19T05:51:13;10.65;;;9.55;;
11685;SDS011;5899;51.282;6.094;2023-01-19T05:56:57;10.63;;;9.52;;
11685;SDS011;5899;51.282;6.094;2023-01-19T05:59:46;11.25;;;10.15;;
11685;SDS011;5899;51.282;6.094;2023-01-19T06:05:25;12.52;;;10.45;;
11685;SDS011;5899;51.282;6.094;2023-01-19T06:08:20;12.48;;;11.18;;
11685;SDS011;5899;51.282;6.094;2023-01-19T06:10:57;11.90;;;10.70;;
11685;SDS011;5899;51.282;6.094;2023-01-19T06:13:54;11.35;;;10.13;;
11685;SDS011;5899;51.282;6.094;2023-01-19T06:16:33;11.77;;;10.27;;
11685;SDS011;5899;51.282;6.094;2023-01-19T06:22:06;12.15;;;10.90;;
11685;SDS011;5899;51.282;6.094;2023-01-19T06:27:50;11.65;;;10.45;;
11685;SDS011;5899;51.282;6.094;2023-01-19T06:30:52;12.23;;;10.93;;
11685;SDS011;5899;51.282;6.094;2023-01-19T06:33:33;13.65;;;12.07;;
11685;SDS011;5899;51.282;6.094;2023-01-19T06:36:22;12.98;;;11.57;;
11685;SDS011;5899;51.282;6.094;2023-01-19T07:44:58;13.75;;;12.07;;
11685;SDS011;5899;51.282;6.094;2023-01-19T08:09:07;19.63;;;15.95;;
11685;SDS011;5899;51.282;6.094;2023-01-19T08:21:10;23.42;;;18.52;;
11685;SDS011;5899;51.282;6.094;2023-01-19T09:08:20;29.67;;;23.00;;
11685;SDS011;5899;51.282;6.094;2023-01-19T09:14:09;32.58;;;22.83;;
11685;SDS011;5899;51.282;6.094;2023-01-19T09:16:44;33.47;;;24.40;;
11685;SDS011;5899;51.282;6.094;2023-01-19T09:19:13;35.55;;;24.60;;
11685;SDS011;5899;51.282;6.094;2023-01-19T09:21:43;36.67;;;24.38;;
11685;SDS011;5899;51.282;6.094;2023-01-19T09:27:12;40.67;;;26.42;;
11685;SDS011;5899;51.282;6.094;2023-01-19T09:30:05;35.28;;;24.70;;
11685;SDS011;5899;51.282;6.094;2023-01-19T09:35:50;35.08;;;25.02;;
11685;SDS011;5899;51.282;6.094;2023-01-19T09:38:21;37.33;;;24.98;;
11685;SDS011;5899;51.282;6.094;2023-01-19T09:41:08;35.03;;;23.98;;
11685;SDS011;5899;51.282;6.094;2023-01-19T09:43:58;34.70;;;24.08;;
11685;SDS011;5899;51.282;6.094;2023-01-19T09:46:40;36.95;;;25.30;;
11685;SDS011;5899;51.282;6.094;2023-01-19T09:49:15;38.35;;;25.67;;
11685;SDS011;5899;51.282;6.094;2023-01-19T09:51:50;34.28;;;24.83;;
11685;SDS011;5899;51.282;6.094;2023-01-19T09:54:29;33.03;;;24.17;;
11685;SDS011;5899;51.282;6.094;2023-01-19T09:57:10;33.80;;;24.13;;
11685;SDS011;5899;51.282;6.094;2023-01-19T09:59:54;38.03;;;26.90;;
11685;SDS011;5899;51.282;6.094;2023-01-19T10:02:39;37.30;;;24.73;;
11685;SDS011;5899;51.282;6.094;2023-01-19T10:05:26;37.50;;;25.42;;
11685;SDS011;5899;51.282;6.094;2023-01-19T10:14:47;37.80;;;24.38;;
11685;SDS011;5899;51.282;6.094;2023-01-19T10:17:33;35.90;;;25.42;;
11685;SDS011;5899;51.282;6.094;2023-01-19T10:20:26;33.53;;;23.55;;
11685;SDS011;5899;51.282;6.094;2023-01-19T10:26:22;32.30;;;23.52;;
11685;SDS011;5899;51.282;6.094;2023-01-19T10:29:05;33.65;;;22.98;;
11685;SDS011;5899;51.282;6.094;2023-01-19T10:32:02;30.05;;;22.60;;
11685;SDS011;5899;51.282;6.094;2023-01-19T10:34:39;34.10;;;23.90;;
11685;SDS011;5899;51.282;6.094;2023-01-19T10:37:14;33.75;;;23.83;;
11685;SDS011;5899;51.282;6.094;2023-01-19T10:39:43;33.58;;;23.60;;
11685;SDS011;5899;51.282;6.094;2023-01-19T10:42:16;33.70;;;23.00;;
11685;SDS011;5899;51.282;6.094;2023-01-19T10:44:52;28.55;;;22.73;;
11685;SDS011;5899;51.282;6.094;2023-01-19T10:50:28;32.47;;;23.83;;
11685;SDS011;5899;51.282;6.094;2023-01-19T10:53:15;29.98;;;22.85;;
11685;SDS011;5899;51.282;6.094;2023-01-19T10:58:40;35.43;;;22.77;;
11685;SDS011;5899;51.282;6.094;2023-01-19T11:04:26;31.25;;;23.33;;
11685;SDS011;5899;51.282;6.094;2023-01-19T11:07:13;35.33;;;25.03;;
11685;SDS011;5899;51.282;6.094;2023-01-19T11:09:41;33.28;;;22.75;;
11685;SDS011;5899;51.282;6.094;2023-01-19T11:12:23;34.13;;;24.48;;
11685;SDS011;5899;51.282;6.094;2023-01-19T11:14:54;33.35;;;23.88;;
11685;SDS011;5899;51.282;6.094;2023-01-19T11:17:29;28.13;;;22.15;;
11685;SDS011;5899;51.282;6.094;2023-01-19T11:25:56;28.95;;;21.63;;
11685;SDS011;5899;51.282;6.094;2023-01-19T11:28:30;29.13;;;21.60;;
11685;SDS011;5899;51.282;6.094;2023-01-19T11:30:59;31.55;;;22.75;;
11685;SDS011;5899;51.282;6.094;2023-01-19T11:33:47;32.08;;;21.15;;
11685;SDS011;5899;51.282;6.094;2023-01-19T11:36:21;29.02;;;21.63;;
11685;SDS011;5899;51.282;6.094;2023-01-19T11:38:48;31.27;;;21.75;;
11685;SDS011;5899;51.282;6.094;2023-01-19T11:41:19;30.58;;;20.17;;
11685;SDS011;5899;51.282;6.094;2023-01-19T11:43:49;27.67;;;19.47;;
11685;SDS011;5899;51.282;6.094;2023-01-19T11:46:18;28.33;;;20.67;;
11685;SDS011;5899;51.282;6.094;2023-01-19T11:49:03;25.08;;;18.90;;
11685;SDS011;5899;51.282;6.094;2023-01-19T11:51:36;25.13;;;18.20;;
11685;SDS011;5899;51.282;6.094;2023-01-19T11:54:08;26.20;;;18.27;;
11685;SDS011;5899;51.282;6.094;2023-01-19T11:56:42;24.50;;;17.08;;
11685;SDS011;5899;51.282;6.094;2023-01-19T11:59:12;21.95;;;15.27;;
11685;SDS011;5899;51.282;6.094;2023-01-19T12:01:45;21.55;;;15.52;;
11685;SDS011;5899;51.282;6.094;2023-01-19T12:04:16;19.48;;;16.02;;
11685;SDS011;5899;51.282;6.094;2023-01-19T12:06:48;19.00;;;15.67;;
11685;SDS011;5899;51.282;6.094;2023-01-19T12:09:18;24.25;;;16.00;;
11685;SDS011;5899;51.282;6.094;2023-01-19T12:11:49;25.70;;;17.23;;
11685;SDS011;5899;51.282;6.094;2023-01-19T12:14:18;25.35;;;17.05;;
11685;SDS011;5899;51.282;6.094;2023-01-19T12:16:46;23.00;;;17.42;;
11685;SDS011;5899;51.282;6.094;2023-01-19T12:19:14;24.52;;;17.65;;
11685;SDS011;5899;51.282;6.094;2023-01-19T12:21:41;23.10;;;18.10;;
11685;SDS011;5899;51.282;6.094;2023-01-19T12:24:12;24.23;;;18.08;;
11685;SDS011;5899;51.282;6.094;2023-01-19T12:26:43;27.20;;;18.95;;
11685;SDS011;5899;51.282;6.094;2023-01-19T12:29:16;24.95;;;18.33;;
11685;SDS011;5899;51.282;6.094;2023-01-19T12:31:46;25.75;;;19.42;;
11685;SDS011;5899;51.282;6.094;2023-01-19T12:34:42;28.50;;;19.55;;
11685;SDS011;5899;51.282;6.094;2023-01-19T12:39:51;28.83;;;20.30;;
11685;SDS011;5899;51.282;6.094;2023-01-19T12:42:17;25.80;;;19.25;;
11685;SDS011;5899;51.282;6.094;2023-01-19T12:44:50;26.40;;;19.83;;
11685;SDS011;5899;51.282;6.094;2023-01-19T12:47:19;29.42;;;20.00;;
11685;SDS011;5899;51.282;6.094;2023-01-19T12:49:48;28.65;;;19.25;;
11685;SDS011;5899;51.282;6.094;2023-01-19T12:52:21;25.20;;;19.02;;
11685;SDS011;5899;51.282;6.094;2023-01-19T12:54:49;26.77;;;18.48;;
11685;SDS011;5899;51.282;6.094;2023-01-19T12:57:17;29.08;;;19.67;;
11685;SDS011;5899;51.282;6.094;2023-01-19T12:59:44;26.55;;;18.30;;
11685;SDS011;5899;51.282;6.094;2023-01-19T13:13:22;26.52;;;18.60;;
11685;SDS011;5899;51.282;6.094;2023-01-19T13:15:50;25.92;;;19.67;;
11685;SDS011;5899;51.282;6.094;2023-01-19T13:18:16;23.88;;;18.27;;
11685;SDS011;5899;51.282;6.094;2023-01-19T13:20:45;24.95;;;17.52;;
11685;SDS011;5899;51.282;6.094;2023-01-19T13:23:16;21.65;;;16.83;;
11685;SDS011;5899;51.282;6.094;2023-01-19T13:25:43;23.30;;;16.75;;
11685;SDS011;5899;51.282;6.094;2023-01-19T13:28:17;25.65;;;18.58;;
11685;SDS011;5899;51.282;6.094;2023-01-19T13:30:58;23.73;;;17.23;;
11685;SDS011;5899;51.282;6.094;2023-01-19T13:33:27;25.42;;;17.38;;
11685;SDS011;5899;51.282;6.094;2023-01-19T13:35:58;25.95;;;18.08;;
11685;SDS011;5899;51.282;6.094;2023-01-19T13:38:25;22.08;;;16.45;;
11685;SDS011;5899;51.282;6.094;2023-01-19T13:40:54;22.77;;;16.92;;
11685;SDS011;5899;51.282;6.094;2023-01-19T13:43:23;20.00;;;16.27;;
11685;SDS011;5899;51.282;6.094;2023-01-19T13:45:52;25.13;;;17.55;;
11685;SDS011;5899;51.282;6.094;2023-01-19T13:48:21;24.30;;;18.10;;
11685;SDS011;5899;51.282;6.094;2023-01-19T13:50:55;21.60;;;16.73;;
11685;SDS011;5899;51.282;6.094;2023-01-19T13:53:22;22.70;;;16.65;;
11685;SDS011;5899;51.282;6.094;2023-01-19T13:58:32;21.83;;;17.27;;
11685;SDS011;5899;51.282;6.094;2023-01-19T14:01:01;22.60;;;16.65;;
11685;SDS011;5899;51.282;6.094;2023-01-19T14:03:30;24.33;;;17.25;;
11685;SDS011;5899;51.282;6.094;2023-01-19T14:05:56;22.88;;;16.90;;
11685;SDS011;5899;51.282;6.094;2023-01-19T14:08:23;24.88;;;17.70;;
11685;SDS011;5899;51.282;6.094;2023-01-19T14:11:00;22.88;;;17.08;;
11685;SDS011;5899;51.282;6.094;2023-01-19T14:13:28;25.65;;;18.10;;
11685;SDS011;5899;51.282;6.094;2023-01-19T14:15:56;23.50;;;17.70;;
11685;SDS011;5899;51.282;6.094;2023-01-19T14:18:25;24.17;;;17.85;;
11685;SDS011;5899;51.282;6.094;2023-01-19T14:20:53;23.27;;;17.98;;
11685;SDS011;5899;51.282;6.094;2023-01-19T14:23:37;26.00;;;18.40;;
11685;SDS011;5899;51.282;6.094;2023-01-19T14:26:04;24.30;;;17.67;;
11685;SDS011;5899;51.282;6.094;2023-01-19T14:28:34;23.23;;;16.80;;
11685;SDS011;5899;51.282;6.094;2023-01-19T14:31:17;24.52;;;16.75;;
11685;SDS011;5899;51.282;6.094;2023-01-19T14:33:49;24.05;;;18.17;;
11685;SDS011;5899;51.282;6.094;2023-01-19T14:36:25;25.25;;;18.38;;
11685;SDS011;5899;51.282;6.094;2023-01-19T14:38:52;23.57;;;18.03;;
11685;SDS011;5899;51.282;6.094;2023-01-19T14:41:23;26.08;;;18.17;;
11685;SDS011;5899;51.282;6.094;2023-01-19T14:43:50;24.45;;;17.63;;
11685;SDS011;5899;51.282;6.094;2023-01-19T14:46:21;25.25;;;17.75;;
11685;SDS011;5899;51.282;6.094;2023-01-19T14:48:50;23.40;;;17.48;;
11685;SDS011;5899;51.282;6.094;2023-01-19T14:51:21;24.70;;;17.90;;
11685;SDS011;5899;51.282;6.094;2023-01-19T14:53:49;23.40;;;17.50;;
11685;SDS011;5899;51.282;6.094;2023-01-19T14:56:22;26.88;;;17.58;;
11685;SDS011;5899;51.282;6.094;2023-01-19T14:58:49;24.58;;;17.65;;
11685;SDS011;5899;51.282;6.094;2023-01-19T15:01:16;24.17;;;17.80;;
11685;SDS011;5899;51.282;6.094;2023-01-19T15:03:42;25.52;;;18.48;;
11685;SDS011;5899;51.282;6.094;2023-01-19T15:06:10;29.08;;;19.40;;
11685;SDS011;5899;51.282;6.094;2023-01-19T15:08:38;25.90;;;18.93;;
11685;SDS011;5899;51.282;6.094;2023-01-19T15:11:07;24.38;;;18.58;;
11685;SDS011;5899;51.282;6.094;2023-01-19T15:13:36;23.67;;;18.13;;
11685;SDS011;5899;51.282;6.094;2023-01-19T15:16:03;25.17;;;17.67;;
11685;SDS011;5899;51.282;6.094;2023-01-19T15:18:35;27.58;;;18.85;;
11685;SDS011;5899;51.282;6.094;2023-01-19T15:21:02;26.27;;;18.00;;
11685;SDS011;5899;51.282;6.094;2023-01-19T15:23:30;25.35;;;18.33;;
11685;SDS011;5899;51.282;6.094;2023-01-19T15:25:58;23.75;;;18.45;;
11685;SDS011;5899;51.282;6.094;2023-01-19T15:28:29;26.67;;;17.85;;
11685;SDS011;5899;51.282;6.094;2023-01-19T15:30:56;24.53;;;16.77;;
11685;SDS011;5899;51.282;6.094;2023-01-19T15:33:26;22.50;;;16.73;;
11685;SDS011;5899;51.282;6.094;2023-01-19T15:35:54;20.70;;;16.08;;
11685;SDS011;5899;51.282;6.094;2023-01-19T15:38:21;22.50;;;16.35;;
11685;SDS011;5899;51.282;6.094;2023-01-19T15:40:49;21.43;;;16.33;;
11685;SDS011;5899;51.282;6.094;2023-01-19T15:43:16;21.85;;;16.33;;
11685;SDS011;5899;51.282;6.094;2023-01-19T15:45:46;24.52;;;16.98;;
11685;SDS011;5899;51.282;6.094;2023-01-19T15:48:18;22.13;;;16.17;;
11685;SDS011;5899;51.282;6.094;2023-01-19T15:51:00;22.42;;;16.75;;
11685;SDS011;5899;51.282;6.094;2023-01-19T15:53:26;28.08;;;16.75;;
11685;SDS011;5899;51.282;6.094;2023-01-19T15:55:56;24.60;;;16.92;;
11685;SDS011;5899;51.282;6.094;2023-01-19T15:58:35;22.55;;;16.35;;
11685;SDS011;5899;51.282;6.094;2023-01-19T16:01:02;23.17;;;16.33;;
11685;SDS011;5899;51.282;6.094;2023-01-19T16:03:44;20.55;;;16.15;;
11685;SDS011;5899;51.282;6.094;2023-01-19T16:06:11;19.90;;;16.15;;
11685;SDS011;5899;51.282;6.094;2023-01-19T16:08:38;20.75;;;16.38;;
11685;SDS011;5899;51.282;6.094;2023-01-19T16:11:07;23.27;;;15.50;;
11685;SDS011;5899;51.282;6.094;2023-01-19T16:13:34;22.73;;;15.85;;
11685;SDS011;5899;51.282;6.094;2023-01-19T16:16:01;21.75;;;15.75;;
11685;SDS011;5899;51.282;6.094;2023-01-19T16:18:30;21.35;;;15.73;;
11685;SDS011;5899;51.282;6.094;2023-01-19T16:20:56;21.70;;;16.00;;
11685;SDS011;5899;51.282;6.094;2023-01-19T16:23:23;20.50;;;15.23;;
11685;SDS011;5899;51.282;6.094;2023-01-19T16:25:58;20.35;;;15.68;;
11685;SDS011;5899;51.282;6.094;2023-01-19T16:28:30;22.17;;;15.77;;
11685;SDS011;5899;51.282;6.094;2023-01-19T16:30:56;23.17;;;16.40;;
11685;SDS011;5899;51.282;6.094;2023-01-19T16:33:23;24.40;;;20.67;;
11685;SDS011;5899;51.282;6.094;2023-01-19T16:35:49;26.17;;;21.45;;
11685;SDS011;5899;51.282;6.094;2023-01-19T16:38:22;26.27;;;21.13;;
11685;SDS011;5899;51.282;6.094;2023-01-19T16:40:50;26.48;;;20.23;;
11685;SDS011;5899;51.282;6.094;2023-01-19T16:43:17;26.70;;;18.90;;
11685;SDS011;5899;51.282;6.094;2023-01-19T16:45:58;24.30;;;18.45;;
11685;SDS011;5899;51.282;6.094;2023-01-19T16:48:25;21.83;;;16.55;;
11685;SDS011;5899;51.282;6.094;2023-01-19T16:50:58;21.65;;;17.30;;
11685;SDS011;5899;51.282;6.094;2023-01-19T16:53:25;21.65;;;16.50;;
11685;SDS011;5899;51.282;6.094;2023-01-19T16:55:51;20.33;;;17.50;;
11685;SDS011;5899;51.282;6.094;2023-01-19T16:58:18;25.25;;;18.98;;
11685;SDS011;5899;51.282;6.094;2023-01-19T17:00:44;30.17;;;23.20;;
11685;SDS011;5899;51.282;6.094;2023-01-19T17:03:12;35.40;;;27.38;;
11685;SDS011;5899;51.282;6.094;2023-01-19T17:05:39;34.38;;;27.52;;
11685;SDS011;5899;51.282;6.094;2023-01-19T17:08:06;32.75;;;28.10;;
11685;SDS011;5899;51.282;6.094;2023-01-19T17:10:34;31.57;;;26.00;;
11685;SDS011;5899;51.282;6.094;2023-01-19T17:13:03;28.95;;;23.65;;
11685;SDS011;5899;51.282;6.094;2023-01-19T17:18:13;24.05;;;19.65;;
11685;SDS011;5899;51.282;6.094;2023-01-19T17:20:42;24.23;;;19.55;;
11685;SDS011;5899;51.282;6.094;2023-01-19T17:23:08;22.10;;;18.40;;
11685;SDS011;5899;51.282;6.094;2023-01-19T17:25:35;24.92;;;22.38;;
11685;SDS011;5899;51.282;6.094;2023-01-19T17:28:04;21.88;;;19.58;;
11685;SDS011;5899;51.282;6.094;2023-01-19T17:30:34;25.23;;;18.87;;
11685;SDS011;5899;51.282;6.094;2023-01-19T17:33:00;22.20;;;16.73;;
11685;SDS011;5899;51.282;6.094;2023-01-19T17:35:28;19.23;;;15.68;;
11685;SDS011;5899;51.282;6.094;2023-01-19T17:37:55;19.88;;;15.38;;
11685;SDS011;5899;51.282;6.094;2023-01-19T17:40:22;17.27;;;14.95;;
11685;SDS011;5899;51.282;6.094;2023-01-19T17:42:50;17.75;;;14.48;;
11685;SDS011;5899;51.282;6.094;2023-01-19T17:45:16;24.33;;;14.75;;
11685;SDS011;5899;51.282;6.094;2023-01-19T17:47:51;34.08;;;22.63;;
11685;SDS011;5899;51.282;6.094;2023-01-19T17:50:17;22.05;;;17.67;;
11685;SDS011;5899;51.282;6.094;2023-01-19T17:52:45;21.17;;;16.70;;
11685;SDS011;5899;51.282;6.094;2023-01-19T17:55:11;21.42;;;17.13;;
11685;SDS011;5899;51.282;6.094;2023-01-19T17:57:39;19.60;;;15.57;;
11685;SDS011;5899;51.282;6.094;2023-01-19T18:00:06;19.23;;;14.95;;
11685;SDS011;5899;51.282;6.094;2023-01-19T18:02:33;19.08;;;14.70;;
11685;SDS011;5899;51.282;6.094;2023-01-19T18:04:59;16.23;;;14.33;;
11685;SDS011;5899;51.282;6.094;2023-01-19T18:07:27;18.67;;;15.83;;
11685;SDS011;5899;51.282;6.094;2023-01-19T18:09:55;18.33;;;15.68;;
11685;SDS011;5899;51.282;6.094;2023-01-19T18:12:22;17.45;;;15.13;;
11685;SDS011;5899;51.282;6.094;2023-01-19T18:14:52;17.75;;;14.60;;
11685;SDS011;5899;51.282;6.094;2023-01-19T18:17:18;17.48;;;14.57;;
11685;SDS011;5899;51.282;6.094;2023-01-19T18:19:45;15.63;;;13.25;;
11685;SDS011;5899;51.282;6.094;2023-01-19T18:22:11;15.85;;;14.00;;
11685;SDS011;5899;51.282;6.094;2023-01-19T18:24:38;16.55;;;13.30;;
11685;SDS011;5899;51.282;6.094;2023-01-19T18:27:06;17.42;;;13.45;;
11685;SDS011;5899;51.282;6.094;2023-01-19T18:29:32;16.20;;;13.30;;
11685;SDS011;5899;51.282;6.094;2023-01-19T18:31:59;16.07;;;13.07;;
11685;SDS011;5899;51.282;6.094;2023-01-19T18:34:25;14.98;;;12.57;;
11685;SDS011;5899;51.282;6.094;2023-01-19T18:36:54;16.15;;;12.52;;
11685;SDS011;5899;51.282;6.094;2023-01-19T18:39:21;15.57;;;12.35;;
11685;SDS011;5899;51.282;6.094;2023-01-19T18:41:47;14.60;;;12.27;;
11685;SDS011;5899;51.282;6.094;2023-01-19T18:44:15;19.10;;;13.82;;
11685;SDS011;5899;51.282;6.094;2023-01-19T18:46:42;17.60;;;14.03;;
11685;SDS011;5899;51.282;6.094;2023-01-19T18:49:08;15.90;;;13.35;;
11685;SDS011;5899;51.282;6.094;2023-01-19T18:51:35;14.88;;;13.27;;
11685;SDS011;5899;51.282;6.094;2023-01-19T18:54:03;17.27;;;13.65;;
11685;SDS011;5899;51.282;6.094;2023-01-19T18:56:30;17.20;;;14.35;;
11685;SDS011;5899;51.282;6.094;2023-01-19T18:58:59;15.90;;;14.25;;
11685;SDS011;5899;51.282;6.094;2023-01-19T19:01:31;20.00;;;15.30;;